sensor_id;sensor_type;location;lat;lon;timestamp;P1;durP1;ratioP1;P2;durP2;ratioP2
60908;SDS011;46780;48.128;-1.704;2022-11-15T00:00:01;16.10;;;2.97;;
60908;SDS011;46780;48.128;-1.704;2022-11-15T00:02:29;20.75;;;3.65;;
60908;SDS011;46780;48.128;-1.704;2022-11-15T00:04:56;15.32;;;3.13;;
60908;SDS011;46780;48.128;-1.704;2022-11-15T00:07:22;16.45;;;3.17;;
60908;SDS011;46780;48.128;-1.704;2022-11-15T00:09:49;17.02;;;2.97;;
60908;SDS011;46780;48.128;-1.704;2022-11-15T00:12:15;20.05;;;3.53;;
60908;SDS011;46780;48.128;-1.704;2022-11-15T00:14:41;17.25;;;3.05;;
60908;SDS011;46780;48.128;-1.704;2022-11-15T00:17:08;15.98;;;3.03;;
60908;SDS011;46780;48.128;-1.704;2022-11-15T00:19:36;20.25;;;3.42;;
60908;SDS011;46780;48.128;-1.704;2022-11-15T00:22:02;15.20;;;3.35;;
60908;SDS011;46780;48.128;-1.704;2022-11-15T00:24:29;20.85;;;3.00;;
60908;SDS011;46780;48.128;-1.704;2022-11-15T00:26:55;16.35;;;3.42;;
60908;SDS011;46780;48.128;-1.704;2022-11-15T00:29:22;20.55;;;3.50;;
60908;SDS011;46780;48.128;-1.704;2022-11-15T00:31:48;15.45;;;3.60;;
60908;SDS011;46780;48.128;-1.704;2022-11-15T00:34:15;21.52;;;3.50;;
60908;SDS011;46780;48.128;-1.704;2022-11-15T00:36:42;15.95;;;3.25;;
60908;SDS011;46780;48.128;-1.704;2022-11-15T00:39:09;18.75;;;3.53;;
60908;SDS011;46780;48.128;-1.704;2022-11-15T00:41:35;15.32;;;3.25;;
60908;SDS011;46780;48.128;-1.704;2022-11-15T00:44:02;17.05;;;3.40;;
60908;SDS011;46780;48.128;-1.704;2022-11-15T00:46:29;19.85;;;3.88;;
60908;SDS011;46780;48.128;-1.704;2022-11-15T00:48:55;18.75;;;3.72;;
60908;SDS011;46780;48.128;-1.704;2022-11-15T00:51:22;15.85;;;2.92;;
60908;SDS011;46780;48.128;-1.704;2022-11-15T00:53:49;20.55;;;3.47;;
60908;SDS011;46780;48.128;-1.704;2022-11-15T00:56:16;13.43;;;2.90;;
60908;SDS011;46780;48.128;-1.704;2022-11-15T00:58:42;17.40;;;3.35;;
60908;SDS011;46780;48.128;-1.704;2022-11-15T01:01:09;21.77;;;2.95;;
60908;SDS011;46780;48.128;-1.704;2022-11-15T01:03:38;15.38;;;2.70;;
60908;SDS011;46780;48.128;-1.704;2022-11-15T01:06:06;18.90;;;3.30;;
60908;SDS011;46780;48.128;-1.704;2022-11-15T01:08:33;13.43;;;2.80;;
60908;SDS011;46780;48.128;-1.704;2022-11-15T01:11:02;15.75;;;2.90;;
60908;SDS011;46780;48.128;-1.704;2022-11-15T01:13:30;19.35;;;2.95;;
60908;SDS011;46780;48.128;-1.704;2022-11-15T01:15:57;18.10;;;2.75;;
60908;SDS011;46780;48.128;-1.704;2022-11-15T01:18:24;11.95;;;2.35;;
60908;SDS011;46780;48.128;-1.704;2022-11-15T01:20:50;18.23;;;2.95;;
60908;SDS011;46780;48.128;-1.704;2022-11-15T01:23:17;14.43;;;2.95;;
60908;SDS011;46780;48.128;-1.704;2022-11-15T01:25:43;14.32;;;2.67;;
60908;SDS011;46780;48.128;-1.704;2022-11-15T01:28:11;19.65;;;2.72;;
60908;SDS011;46780;48.128;-1.704;2022-11-15T01:30:38;15.57;;;2.58;;
60908;SDS011;46780;48.128;-1.704;2022-11-15T01:33:04;18.13;;;2.88;;
60908;SDS011;46780;48.128;-1.704;2022-11-15T01:35:31;19.25;;;2.78;;
60908;SDS011;46780;48.128;-1.704;2022-11-15T01:37:57;15.82;;;2.55;;
60908;SDS011;46780;48.128;-1.704;2022-11-15T01:40:24;14.40;;;2.72;;
60908;SDS011;46780;48.128;-1.704;2022-11-15T01:42:50;13.68;;;2.47;;
60908;SDS011;46780;48.128;-1.704;2022-11-15T01:45:18;15.93;;;2.22;;
60908;SDS011;46780;48.128;-1.704;2022-11-15T01:47:45;19.00;;;2.70;;
60908;SDS011;46780;48.128;-1.704;2022-11-15T01:50:15;16.35;;;2.70;;
60908;SDS011;46780;48.128;-1.704;2022-11-15T01:52:45;15.18;;;2.38;;
60908;SDS011;46780;48.128;-1.704;2022-11-15T01:55:13;22.63;;;2.70;;
60908;SDS011;46780;48.128;-1.704;2022-11-15T01:57:44;11.75;;;1.92;;
60908;SDS011;46780;48.128;-1.704;2022-11-15T02:00:16;12.77;;;2.10;;
60908;SDS011;46780;48.128;-1.704;2022-11-15T02:02:44;13.55;;;2.40;;
60908;SDS011;46780;48.128;-1.704;2022-11-15T02:05:11;15.40;;;2.30;;
60908;SDS011;46780;48.128;-1.704;2022-11-15T02:07:37;13.27;;;2.38;;
60908;SDS011;46780;48.128;-1.704;2022-11-15T02:10:06;13.90;;;1.88;;
60908;SDS011;46780;48.128;-1.704;2022-11-15T02:12:35;14.55;;;2.38;;
60908;SDS011;46780;48.128;-1.704;2022-11-15T02:15:03;13.10;;;2.05;;
60908;SDS011;46780;48.128;-1.704;2022-11-15T02:17:34;15.57;;;2.17;;
60908;SDS011;46780;48.128;-1.704;2022-11-15T02:26:28;17.35;;;2.10;;
60908;SDS011;46780;48.128;-1.704;2022-11-15T02:29:19;14.15;;;2.15;;
60908;SDS011;46780;48.128;-1.704;2022-11-15T02:32:01;11.35;;;2.17;;
60908;SDS011;46780;48.128;-1.704;2022-11-15T02:34:33;13.88;;;2.10;;
60908;SDS011;46780;48.128;-1.704;2022-11-15T02:37:11;15.52;;;1.98;;
60908;SDS011;46780;48.128;-1.704;2022-11-15T02:39:44;14.57;;;2.20;;
60908;SDS011;46780;48.128;-1.704;2022-11-15T02:42:16;14.95;;;2.22;;
60908;SDS011;46780;48.128;-1.704;2022-11-15T02:44:46;15.10;;;2.10;;
60908;SDS011;46780;48.128;-1.704;2022-11-15T02:47:16;11.43;;;1.88;;
60908;SDS011;46780;48.128;-1.704;2022-11-15T02:49:46;13.57;;;2.00;;
60908;SDS011;46780;48.128;-1.704;2022-11-15T02:52:14;11.65;;;2.20;;
60908;SDS011;46780;48.128;-1.704;2022-11-15T02:54:41;13.23;;;2.10;;
60908;SDS011;46780;48.128;-1.704;2022-11-15T02:57:10;11.50;;;1.80;;
60908;SDS011;46780;48.128;-1.704;2022-11-15T02:59:48;18.60;;;2.20;;
60908;SDS011;46780;48.128;-1.704;2022-11-15T03:02:51;20.85;;;2.08;;
60908;SDS011;46780;48.128;-1.704;2022-11-15T03:05:25;14.35;;;1.98;;
60908;SDS011;46780;48.128;-1.704;2022-11-15T03:08:02;14.23;;;2.20;;
60908;SDS011;46780;48.128;-1.704;2022-11-15T03:10:36;17.35;;;2.08;;
60908;SDS011;46780;48.128;-1.704;2022-11-15T03:13:12;20.58;;;2.03;;
60908;SDS011;46780;48.128;-1.704;2022-11-15T03:15:48;13.68;;;1.88;;
60908;SDS011;46780;48.128;-1.704;2022-11-15T03:18:22;11.63;;;1.98;;
60908;SDS011;46780;48.128;-1.704;2022-11-15T03:20:54;16.33;;;3.15;;
60908;SDS011;46780;48.128;-1.704;2022-11-15T03:23:23;16.83;;;2.10;;
60908;SDS011;46780;48.128;-1.704;2022-11-15T03:25:51;12.55;;;1.83;;
60908;SDS011;46780;48.128;-1.704;2022-11-15T03:28:21;13.23;;;2.00;;
60908;SDS011;46780;48.128;-1.704;2022-11-15T03:30:50;16.00;;;2.22;;
60908;SDS011;46780;48.128;-1.704;2022-11-15T03:33:19;17.40;;;1.95;;
60908;SDS011;46780;48.128;-1.704;2022-11-15T03:35:48;13.60;;;1.85;;
60908;SDS011;46780;48.128;-1.704;2022-11-15T03:38:16;16.50;;;2.20;;
60908;SDS011;46780;48.128;-1.704;2022-11-15T03:43:16;12.40;;;2.03;;
60908;SDS011;46780;48.128;-1.704;2022-11-15T03:45:50;12.90;;;2.13;;
60908;SDS011;46780;48.128;-1.704;2022-11-15T03:48:22;13.85;;;2.00;;
60908;SDS011;46780;48.128;-1.704;2022-11-15T03:50:52;14.32;;;1.92;;
60908;SDS011;46780;48.128;-1.704;2022-11-15T03:53:19;16.00;;;1.98;;
60908;SDS011;46780;48.128;-1.704;2022-11-15T03:55:45;17.63;;;2.35;;
60908;SDS011;46780;48.128;-1.704;2022-11-15T03:58:12;19.73;;;2.10;;
60908;SDS011;46780;48.128;-1.704;2022-11-15T04:00:38;13.73;;;1.83;;
60908;SDS011;46780;48.128;-1.704;2022-11-15T04:03:04;11.00;;;1.92;;
60908;SDS011;46780;48.128;-1.704;2022-11-15T04:05:32;13.27;;;1.85;;
60908;SDS011;46780;48.128;-1.704;2022-11-15T04:07:59;16.30;;;2.20;;
60908;SDS011;46780;48.128;-1.704;2022-11-15T04:10:25;15.15;;;2.00;;
60908;SDS011;46780;48.128;-1.704;2022-11-15T04:12:52;13.05;;;2.20;;
60908;SDS011;46780;48.128;-1.704;2022-11-15T04:15:19;13.52;;;2.03;;
60908;SDS011;46780;48.128;-1.704;2022-11-15T04:17:48;11.90;;;2.15;;
60908;SDS011;46780;48.128;-1.704;2022-11-15T04:20:16;19.17;;;2.13;;
60908;SDS011;46780;48.128;-1.704;2022-11-15T04:22:45;12.48;;;1.85;;
60908;SDS011;46780;48.128;-1.704;2022-11-15T04:25:12;11.23;;;2.05;;
60908;SDS011;46780;48.128;-1.704;2022-11-15T04:27:38;16.55;;;1.80;;
60908;SDS011;46780;48.128;-1.704;2022-11-15T04:30:05;14.60;;;1.90;;
60908;SDS011;46780;48.128;-1.704;2022-11-15T04:32:33;19.25;;;2.33;;
60908;SDS011;46780;48.128;-1.704;2022-11-15T04:34:59;13.02;;;1.77;;
60908;SDS011;46780;48.128;-1.704;2022-11-15T04:37:26;14.23;;;2.20;;
60908;SDS011;46780;48.128;-1.704;2022-11-15T04:39:53;13.88;;;1.98;;
60908;SDS011;46780;48.128;-1.704;2022-11-15T04:42:20;15.15;;;1.92;;
60908;SDS011;46780;48.128;-1.704;2022-11-15T04:44:46;18.73;;;2.00;;
60908;SDS011;46780;48.128;-1.704;2022-11-15T04:47:13;13.75;;;1.95;;
60908;SDS011;46780;48.128;-1.704;2022-11-15T04:49:39;13.85;;;1.80;;
60908;SDS011;46780;48.128;-1.704;2022-11-15T04:52:05;15.50;;;1.92;;
60908;SDS011;46780;48.128;-1.704;2022-11-15T04:54:32;14.95;;;1.80;;
60908;SDS011;46780;48.128;-1.704;2022-11-15T04:57:00;16.25;;;2.10;;
60908;SDS011;46780;48.128;-1.704;2022-11-15T04:59:26;15.13;;;2.00;;
60908;SDS011;46780;48.128;-1.704;2022-11-15T05:01:53;11.80;;;1.70;;
60908;SDS011;46780;48.128;-1.704;2022-11-15T05:04:19;16.42;;;2.10;;
60908;SDS011;46780;48.128;-1.704;2022-11-15T05:06:46;14.07;;;2.13;;
60908;SDS011;46780;48.128;-1.704;2022-11-15T05:09:13;18.52;;;2.00;;
60908;SDS011;46780;48.128;-1.704;2022-11-15T05:11:40;10.00;;;1.75;;
60908;SDS011;46780;48.128;-1.704;2022-11-15T05:14:09;12.63;;;1.95;;
60908;SDS011;46780;48.128;-1.704;2022-11-15T05:16:35;14.63;;;2.10;;
60908;SDS011;46780;48.128;-1.704;2022-11-15T05:19:02;10.48;;;1.70;;
60908;SDS011;46780;48.128;-1.704;2022-11-15T05:21:29;12.95;;;1.92;;
60908;SDS011;46780;48.128;-1.704;2022-11-15T05:23:56;16.40;;;2.13;;
60908;SDS011;46780;48.128;-1.704;2022-11-15T05:26:22;12.27;;;1.88;;
60908;SDS011;46780;48.128;-1.704;2022-11-15T05:28:51;11.55;;;1.83;;
60908;SDS011;46780;48.128;-1.704;2022-11-15T05:31:19;17.05;;;2.00;;
60908;SDS011;46780;48.128;-1.704;2022-11-15T05:33:46;10.45;;;1.75;;
60908;SDS011;46780;48.128;-1.704;2022-11-15T05:36:15;19.92;;;2.00;;
60908;SDS011;46780;48.128;-1.704;2022-11-15T05:38:45;13.73;;;2.00;;
60908;SDS011;46780;48.128;-1.704;2022-11-15T05:41:12;10.80;;;1.85;;
60908;SDS011;46780;48.128;-1.704;2022-11-15T05:43:41;11.85;;;2.00;;
60908;SDS011;46780;48.128;-1.704;2022-11-15T05:46:09;11.15;;;1.83;;
60908;SDS011;46780;48.128;-1.704;2022-11-15T05:48:38;12.98;;;1.73;;
60908;SDS011;46780;48.128;-1.704;2022-11-15T05:51:08;12.35;;;1.98;;
60908;SDS011;46780;48.128;-1.704;2022-11-15T05:53:35;14.18;;;2.40;;
60908;SDS011;46780;48.128;-1.704;2022-11-15T05:56:03;11.15;;;2.58;;
60908;SDS011;46780;48.128;-1.704;2022-11-15T05:58:30;17.48;;;2.30;;
60908;SDS011;46780;48.128;-1.704;2022-11-15T06:00:57;13.75;;;2.28;;
60908;SDS011;46780;48.128;-1.704;2022-11-15T06:03:25;12.50;;;2.22;;
60908;SDS011;46780;48.128;-1.704;2022-11-15T06:05:53;12.98;;;2.28;;
60908;SDS011;46780;48.128;-1.704;2022-11-15T06:08:19;11.68;;;2.22;;
60908;SDS011;46780;48.128;-1.704;2022-11-15T06:10:46;17.13;;;2.28;;
60908;SDS011;46780;48.128;-1.704;2022-11-15T06:13:12;14.80;;;2.58;;
60908;SDS011;46780;48.128;-1.704;2022-11-15T06:15:39;12.30;;;2.03;;
60908;SDS011;46780;48.128;-1.704;2022-11-15T06:18:05;12.27;;;1.90;;
60908;SDS011;46780;48.128;-1.704;2022-11-15T06:20:32;11.70;;;2.10;;
60908;SDS011;46780;48.128;-1.704;2022-11-15T06:23:00;11.00;;;2.00;;
60908;SDS011;46780;48.128;-1.704;2022-11-15T06:25:28;8.10;;;2.10;;
60908;SDS011;46780;48.128;-1.704;2022-11-15T06:27:55;13.68;;;2.35;;
60908;SDS011;46780;48.128;-1.704;2022-11-15T06:30:24;10.98;;;1.98;;
60908;SDS011;46780;48.128;-1.704;2022-11-15T06:32:51;14.05;;;2.20;;
60908;SDS011;46780;48.128;-1.704;2022-11-15T06:35:23;12.70;;;2.40;;
60908;SDS011;46780;48.128;-1.704;2022-11-15T06:37:50;10.43;;;2.20;;
60908;SDS011;46780;48.128;-1.704;2022-11-15T06:40:17;9.07;;;1.90;;
60908;SDS011;46780;48.128;-1.704;2022-11-15T06:42:44;14.20;;;2.60;;
60908;SDS011;46780;48.128;-1.704;2022-11-15T06:45:10;12.57;;;2.40;;
60908;SDS011;46780;48.128;-1.704;2022-11-15T06:47:43;14.57;;;2.45;;
60908;SDS011;46780;48.128;-1.704;2022-11-15T06:50:10;13.43;;;2.70;;
60908;SDS011;46780;48.128;-1.704;2022-11-15T06:52:37;12.45;;;2.17;;
60908;SDS011;46780;48.128;-1.704;2022-11-15T06:55:03;11.32;;;2.33;;
60908;SDS011;46780;48.128;-1.704;2022-11-15T06:57:32;15.18;;;2.78;;
60908;SDS011;46780;48.128;-1.704;2022-11-15T06:59:58;14.40;;;2.38;;
60908;SDS011;46780;48.128;-1.704;2022-11-15T07:02:25;11.80;;;2.58;;
60908;SDS011;46780;48.128;-1.704;2022-11-15T07:04:51;11.25;;;2.40;;
60908;SDS011;46780;48.128;-1.704;2022-11-15T07:07:18;17.95;;;2.58;;
60908;SDS011;46780;48.128;-1.704;2022-11-15T07:09:45;11.70;;;2.35;;
60908;SDS011;46780;48.128;-1.704;2022-11-15T07:12:11;10.65;;;2.40;;
60908;SDS011;46780;48.128;-1.704;2022-11-15T07:14:39;13.43;;;2.70;;
60908;SDS011;46780;48.128;-1.704;2022-11-15T07:17:06;10.23;;;2.80;;
60908;SDS011;46780;48.128;-1.704;2022-11-15T07:19:32;11.10;;;2.45;;
60908;SDS011;46780;48.128;-1.704;2022-11-15T07:21:59;11.60;;;2.22;;
60908;SDS011;46780;48.128;-1.704;2022-11-15T07:24:25;12.73;;;2.55;;
60908;SDS011;46780;48.128;-1.704;2022-11-15T07:26:52;7.88;;;2.05;;
60908;SDS011;46780;48.128;-1.704;2022-11-15T07:29:19;11.70;;;2.42;;
60908;SDS011;46780;48.128;-1.704;2022-11-15T07:31:47;11.25;;;2.25;;
60908;SDS011;46780;48.128;-1.704;2022-11-15T07:34:17;8.63;;;2.05;;
60908;SDS011;46780;48.128;-1.704;2022-11-15T07:36:44;9.30;;;2.40;;
60908;SDS011;46780;48.128;-1.704;2022-11-15T07:39:11;8.40;;;2.40;;
60908;SDS011;46780;48.128;-1.704;2022-11-15T07:41:38;10.63;;;2.40;;
60908;SDS011;46780;48.128;-1.704;2022-11-15T07:44:04;8.43;;;2.30;;
60908;SDS011;46780;48.128;-1.704;2022-11-15T07:46:31;10.48;;;2.35;;
60908;SDS011;46780;48.128;-1.704;2022-11-15T07:48:59;8.95;;;2.17;;
60908;SDS011;46780;48.128;-1.704;2022-11-15T07:51:26;8.90;;;2.33;;
60908;SDS011;46780;48.128;-1.704;2022-11-15T07:53:52;8.43;;;2.30;;
60908;SDS011;46780;48.128;-1.704;2022-11-15T07:56:19;11.18;;;2.40;;
60908;SDS011;46780;48.128;-1.704;2022-11-15T07:58:45;8.82;;;2.20;;
60908;SDS011;46780;48.128;-1.704;2022-11-15T08:01:12;8.35;;;2.63;;
60908;SDS011;46780;48.128;-1.704;2022-11-15T08:03:38;9.45;;;2.60;;
60908;SDS011;46780;48.128;-1.704;2022-11-15T08:06:07;8.90;;;2.20;;
60908;SDS011;46780;48.128;-1.704;2022-11-15T08:08:33;8.68;;;2.10;;
60908;SDS011;46780;48.128;-1.704;2022-11-15T08:11:00;8.73;;;2.00;;
60908;SDS011;46780;48.128;-1.704;2022-11-15T08:13:27;10.32;;;2.55;;
60908;SDS011;46780;48.128;-1.704;2022-11-15T08:15:56;6.60;;;2.28;;
60908;SDS011;46780;48.128;-1.704;2022-11-15T08:21:34;9.43;;;2.65;;
60908;SDS011;46780;48.128;-1.704;2022-11-15T08:28:11;4.80;;;1.52;;
60908;SDS011;46780;48.128;-1.704;2022-11-15T08:30:43;5.25;;;1.90;;
60908;SDS011;46780;48.128;-1.704;2022-11-15T08:43:28;5.30;;;1.30;;
60908;SDS011;46780;48.128;-1.704;2022-11-15T08:45:55;5.00;;;1.30;;
60908;SDS011;46780;48.128;-1.704;2022-11-15T08:48:22;4.20;;;1.50;;
60908;SDS011;46780;48.128;-1.704;2022-11-15T08:50:51;6.60;;;1.40;;
60908;SDS011;46780;48.128;-1.704;2022-11-15T08:59:17;4.00;;;1.48;;
60908;SDS011;46780;48.128;-1.704;2022-11-15T09:01:46;5.10;;;1.65;;
60908;SDS011;46780;48.128;-1.704;2022-11-15T09:04:13;7.75;;;1.60;;
60908;SDS011;46780;48.128;-1.704;2022-11-15T09:06:39;5.60;;;1.55;;
60908;SDS011;46780;48.128;-1.704;2022-11-15T09:09:06;6.35;;;1.33;;
60908;SDS011;46780;48.128;-1.704;2022-11-15T09:11:32;8.02;;;1.90;;
60908;SDS011;46780;48.128;-1.704;2022-11-15T09:13:59;6.95;;;1.70;;
60908;SDS011;46780;48.128;-1.704;2022-11-15T09:16:27;8.20;;;1.77;;
60908;SDS011;46780;48.128;-1.704;2022-11-15T09:18:55;6.50;;;1.63;;
60908;SDS011;46780;48.128;-1.704;2022-11-15T09:21:22;8.15;;;1.85;;
60908;SDS011;46780;48.128;-1.704;2022-11-15T09:23:49;8.15;;;1.70;;
60908;SDS011;46780;48.128;-1.704;2022-11-15T09:26:17;7.47;;;1.88;;
60908;SDS011;46780;48.128;-1.704;2022-11-15T09:28:44;8.40;;;2.20;;
60908;SDS011;46780;48.128;-1.704;2022-11-15T09:31:10;11.52;;;2.10;;
60908;SDS011;46780;48.128;-1.704;2022-11-15T09:33:38;9.20;;;1.80;;
60908;SDS011;46780;48.128;-1.704;2022-11-15T09:36:06;8.80;;;1.88;;
60908;SDS011;46780;48.128;-1.704;2022-11-15T09:38:33;10.35;;;2.08;;
60908;SDS011;46780;48.128;-1.704;2022-11-15T09:41:24;12.82;;;2.10;;
60908;SDS011;46780;48.128;-1.704;2022-11-15T09:44:05;12.00;;;2.23;;
60908;SDS011;46780;48.128;-1.704;2022-11-15T09:46:45;11.45;;;1.92;;
60908;SDS011;46780;48.128;-1.704;2022-11-15T09:49:19;11.88;;;2.38;;
60908;SDS011;46780;48.128;-1.704;2022-11-15T09:51:49;13.30;;;2.30;;
60908;SDS011;46780;48.128;-1.704;2022-11-15T09:54:21;9.07;;;2.15;;
60908;SDS011;46780;48.128;-1.704;2022-11-15T09:56:52;11.48;;;2.42;;
60908;SDS011;46780;48.128;-1.704;2022-11-15T09:59:25;10.13;;;2.50;;
60908;SDS011;46780;48.128;-1.704;2022-11-15T10:04:35;9.57;;;2.05;;
60908;SDS011;46780;48.128;-1.704;2022-11-15T10:07:04;13.80;;;2.63;;
60908;SDS011;46780;48.128;-1.704;2022-11-15T10:09:39;8.00;;;2.13;;
60908;SDS011;46780;48.128;-1.704;2022-11-15T10:12:11;10.73;;;2.03;;
60908;SDS011;46780;48.128;-1.704;2022-11-15T10:14:39;11.00;;;2.08;;
60908;SDS011;46780;48.128;-1.704;2022-11-15T10:17:12;9.63;;;2.15;;
60908;SDS011;46780;48.128;-1.704;2022-11-15T10:20:02;7.82;;;1.95;;
60908;SDS011;46780;48.128;-1.704;2022-11-15T10:22:37;12.02;;;2.33;;
60908;SDS011;46780;48.128;-1.704;2022-11-15T10:25:20;9.77;;;2.42;;
60908;SDS011;46780;48.128;-1.704;2022-11-15T10:27:51;12.43;;;2.50;;
60908;SDS011;46780;48.128;-1.704;2022-11-15T10:30:20;8.88;;;2.10;;
60908;SDS011;46780;48.128;-1.704;2022-11-15T10:32:47;9.27;;;2.17;;
60908;SDS011;46780;48.128;-1.704;2022-11-15T10:35:23;10.88;;;2.50;;
60908;SDS011;46780;48.128;-1.704;2022-11-15T10:37:51;12.52;;;2.67;;
60908;SDS011;46780;48.128;-1.704;2022-11-15T10:40:18;14.13;;;2.67;;
60908;SDS011;46780;48.128;-1.704;2022-11-15T10:42:46;11.95;;;2.65;;
60908;SDS011;46780;48.128;-1.704;2022-11-15T10:45:23;11.85;;;2.50;;
60908;SDS011;46780;48.128;-1.704;2022-11-15T10:47:55;10.98;;;2.90;;
60908;SDS011;46780;48.128;-1.704;2022-11-15T10:50:50;13.88;;;2.95;;
60908;SDS011;46780;48.128;-1.704;2022-11-15T10:53:19;14.50;;;2.40;;
60908;SDS011;46780;48.128;-1.704;2022-11-15T10:55:50;12.60;;;2.55;;
60908;SDS011;46780;48.128;-1.704;2022-11-15T10:58:20;15.73;;;2.73;;
60908;SDS011;46780;48.128;-1.704;2022-11-15T11:00:55;12.68;;;2.40;;
60908;SDS011;46780;48.128;-1.704;2022-11-15T11:03:34;14.10;;;2.50;;
60908;SDS011;46780;48.128;-1.704;2022-11-15T11:06:07;14.25;;;2.53;;
60908;SDS011;46780;48.128;-1.704;2022-11-15T11:08:35;17.48;;;2.83;;
60908;SDS011;46780;48.128;-1.704;2022-11-15T11:11:03;14.00;;;2.47;;
60908;SDS011;46780;48.128;-1.704;2022-11-15T11:13:33;17.23;;;2.67;;
60908;SDS011;46780;48.128;-1.704;2022-11-15T11:16:20;12.50;;;2.15;;
60908;SDS011;46780;48.128;-1.704;2022-11-15T11:18:58;19.88;;;2.72;;
60908;SDS011;46780;48.128;-1.704;2022-11-15T11:21:36;21.38;;;2.75;;
60908;SDS011;46780;48.128;-1.704;2022-11-15T11:24:11;17.92;;;2.50;;
60908;SDS011;46780;48.128;-1.704;2022-11-15T11:26:54;16.58;;;3.00;;
60908;SDS011;46780;48.128;-1.704;2022-11-15T11:29:33;19.52;;;2.88;;
60908;SDS011;46780;48.128;-1.704;2022-11-15T11:32:16;12.95;;;2.50;;
60908;SDS011;46780;48.128;-1.704;2022-11-15T11:34:55;18.08;;;2.80;;
60908;SDS011;46780;48.128;-1.704;2022-11-15T11:37:30;17.30;;;2.42;;
60908;SDS011;46780;48.128;-1.704;2022-11-15T11:40:05;18.75;;;2.97;;
60908;SDS011;46780;48.128;-1.704;2022-11-15T11:42:43;14.27;;;2.42;;
60908;SDS011;46780;48.128;-1.704;2022-11-15T11:45:15;27.27;;;3.30;;
60908;SDS011;46780;48.128;-1.704;2022-11-15T11:47:51;23.67;;;2.80;;
60908;SDS011;46780;48.128;-1.704;2022-11-15T11:50:22;22.10;;;2.80;;
60908;SDS011;46780;48.128;-1.704;2022-11-15T11:52:56;18.95;;;2.80;;
60908;SDS011;46780;48.128;-1.704;2022-11-15T11:55:26;15.63;;;2.40;;
60908;SDS011;46780;48.128;-1.704;2022-11-15T11:57:59;20.45;;;2.58;;
60908;SDS011;46780;48.128;-1.704;2022-11-15T12:00:31;18.23;;;2.67;;
60908;SDS011;46780;48.128;-1.704;2022-11-15T12:03:05;21.45;;;3.00;;
60908;SDS011;46780;48.128;-1.704;2022-11-15T12:05:38;13.52;;;2.50;;
60908;SDS011;46780;48.128;-1.704;2022-11-15T12:08:18;18.20;;;2.42;;
60908;SDS011;46780;48.128;-1.704;2022-11-15T12:10:57;15.55;;;2.08;;
60908;SDS011;46780;48.128;-1.704;2022-11-15T12:13:29;13.27;;;2.20;;
60908;SDS011;46780;48.128;-1.704;2022-11-15T12:15:59;13.63;;;2.15;;
60908;SDS011;46780;48.128;-1.704;2022-11-15T12:18:31;17.23;;;2.30;;
60908;SDS011;46780;48.128;-1.704;2022-11-15T12:20:59;13.77;;;2.15;;
60908;SDS011;46780;48.128;-1.704;2022-11-15T12:23:32;13.00;;;2.42;;
60908;SDS011;46780;48.128;-1.704;2022-11-15T12:29:27;8.77;;;1.70;;
60908;SDS011;46780;48.128;-1.704;2022-11-15T12:34:30;12.65;;;2.42;;
60908;SDS011;46780;48.128;-1.704;2022-11-15T12:40:15;10.27;;;1.88;;
60908;SDS011;46780;48.128;-1.704;2022-11-15T12:42:56;15.63;;;2.30;;
60908;SDS011;46780;48.128;-1.704;2022-11-15T12:45:27;12.15;;;2.28;;
60908;SDS011;46780;48.128;-1.704;2022-11-15T12:47:55;16.58;;;2.67;;
60908;SDS011;46780;48.128;-1.704;2022-11-15T12:56:07;13.18;;;1.92;;
60908;SDS011;46780;48.128;-1.704;2022-11-15T12:58:44;16.40;;;2.40;;
60908;SDS011;46780;48.128;-1.704;2022-11-15T13:01:51;12.40;;;2.15;;
60908;SDS011;46780;48.128;-1.704;2022-11-15T13:04:08;12.70;;;2.17;;
60908;SDS011;46780;48.128;-1.704;2022-11-15T13:06:38;18.63;;;2.45;;
60908;SDS011;46780;48.128;-1.704;2022-11-15T13:09:49;17.92;;;2.58;;
60908;SDS011;46780;48.128;-1.704;2022-11-15T13:11:58;10.23;;;1.98;;
60908;SDS011;46780;48.128;-1.704;2022-11-15T13:17:23;12.98;;;2.03;;
60908;SDS011;46780;48.128;-1.704;2022-11-15T13:19:52;13.25;;;2.15;;
60908;SDS011;46780;48.128;-1.704;2022-11-15T13:22:19;16.67;;;2.10;;
60908;SDS011;46780;48.128;-1.704;2022-11-15T13:24:46;14.07;;;1.83;;
60908;SDS011;46780;48.128;-1.704;2022-11-15T13:27:15;11.68;;;2.08;;
60908;SDS011;46780;48.128;-1.704;2022-11-15T13:29:44;12.60;;;1.75;;
60908;SDS011;46780;48.128;-1.704;2022-11-15T13:32:11;10.93;;;2.10;;
60908;SDS011;46780;48.128;-1.704;2022-11-15T13:34:38;14.85;;;1.95;;
60908;SDS011;46780;48.128;-1.704;2022-11-15T13:39:35;14.65;;;2.00;;
60908;SDS011;46780;48.128;-1.704;2022-11-15T13:42:02;14.57;;;2.33;;
60908;SDS011;46780;48.128;-1.704;2022-11-15T13:44:31;12.35;;;2.03;;
60908;SDS011;46780;48.128;-1.704;2022-11-15T13:47:06;12.73;;;2.00;;
60908;SDS011;46780;48.128;-1.704;2022-11-15T13:49:33;9.00;;;1.65;;
60908;SDS011;46780;48.128;-1.704;2022-11-15T13:52:01;11.88;;;1.90;;
60908;SDS011;46780;48.128;-1.704;2022-11-15T13:54:28;11.55;;;1.83;;
60908;SDS011;46780;48.128;-1.704;2022-11-15T13:56:56;10.95;;;1.70;;
60908;SDS011;46780;48.128;-1.704;2022-11-15T13:59:27;15.93;;;2.10;;
60908;SDS011;46780;48.128;-1.704;2022-11-15T14:01:56;11.50;;;2.17;;
60908;SDS011;46780;48.128;-1.704;2022-11-15T14:04:24;10.07;;;1.75;;
60908;SDS011;46780;48.128;-1.704;2022-11-15T14:06:54;14.80;;;1.92;;
60908;SDS011;46780;48.128;-1.704;2022-11-15T14:09:29;19.93;;;2.07;;
60908;SDS011;46780;48.128;-1.704;2022-11-15T14:11:56;8.57;;;1.58;;
60908;SDS011;46780;48.128;-1.704;2022-11-15T14:14:24;8.95;;;1.60;;
60908;SDS011;46780;48.128;-1.704;2022-11-15T14:16:52;10.38;;;1.40;;
60908;SDS011;46780;48.128;-1.704;2022-11-15T14:24:38;11.20;;;1.75;;
60908;SDS011;46780;48.128;-1.704;2022-11-15T14:27:21;6.03;;;1.15;;
60908;SDS011;46780;48.128;-1.704;2022-11-15T14:29:48;7.57;;;1.33;;
60908;SDS011;46780;48.128;-1.704;2022-11-15T14:32:16;9.85;;;1.50;;
60908;SDS011;46780;48.128;-1.704;2022-11-15T14:34:43;5.97;;;1.27;;
60908;SDS011;46780;48.128;-1.704;2022-11-15T14:37:19;8.38;;;1.50;;
60908;SDS011;46780;48.128;-1.704;2022-11-15T14:39:48;11.15;;;1.63;;
60908;SDS011;46780;48.128;-1.704;2022-11-15T14:42:14;9.02;;;1.50;;
60908;SDS011;46780;48.128;-1.704;2022-11-15T14:44:41;9.95;;;1.40;;
60908;SDS011;46780;48.128;-1.704;2022-11-15T14:47:08;12.43;;;1.70;;
60908;SDS011;46780;48.128;-1.704;2022-11-15T14:49:35;9.93;;;1.83;;
60908;SDS011;46780;48.128;-1.704;2022-11-15T14:52:02;9.25;;;1.52;;
60908;SDS011;46780;48.128;-1.704;2022-11-15T14:54:33;12.93;;;1.95;;
60908;SDS011;46780;48.128;-1.704;2022-11-15T14:57:01;12.02;;;2.00;;
60908;SDS011;46780;48.128;-1.704;2022-11-15T14:59:28;10.05;;;1.80;;
60908;SDS011;46780;48.128;-1.704;2022-11-15T15:01:55;11.23;;;1.80;;
60908;SDS011;46780;48.128;-1.704;2022-11-15T15:04:21;9.75;;;1.50;;
60908;SDS011;46780;48.128;-1.704;2022-11-15T15:06:48;7.60;;;1.50;;
60908;SDS011;46780;48.128;-1.704;2022-11-15T15:09:15;10.00;;;1.33;;
60908;SDS011;46780;48.128;-1.704;2022-11-15T15:11:42;8.80;;;1.27;;
60908;SDS011;46780;48.128;-1.704;2022-11-15T15:14:10;6.90;;;1.10;;
60908;SDS011;46780;48.128;-1.704;2022-11-15T15:16:37;8.95;;;1.60;;
60908;SDS011;46780;48.128;-1.704;2022-11-15T15:19:04;8.35;;;1.50;;
60908;SDS011;46780;48.128;-1.704;2022-11-15T15:21:30;6.50;;;1.42;;
60908;SDS011;46780;48.128;-1.704;2022-11-15T15:23:57;9.73;;;1.70;;
60908;SDS011;46780;48.128;-1.704;2022-11-15T15:26:24;8.63;;;1.17;;
60908;SDS011;46780;48.128;-1.704;2022-11-15T15:28:51;9.82;;;1.40;;
60908;SDS011;46780;48.128;-1.704;2022-11-15T15:31:19;9.75;;;1.80;;
60908;SDS011;46780;48.128;-1.704;2022-11-15T15:33:46;8.18;;;1.70;;
60908;SDS011;46780;48.128;-1.704;2022-11-15T15:36:13;7.05;;;1.45;;